地図

経路データ

SID SEASON NUMBER BASIN SUBBASIN NAME ISO_TIME NATURE LAT LON WMO_WIND WMO_PRES WMO_AGENCY TRACK_TYPE DIST2LAND LANDFALL IFLAG USA_AGENCY USA_ATCF_ID USA_LAT USA_LON USA_RECORD USA_STATUS USA_WIND USA_PRES USA_SSHS USA_R34_NE USA_R34_SE USA_R34_SW USA_R34_NW USA_R50_NE USA_R50_SE USA_R50_SW USA_R50_NW USA_R64_NE USA_R64_SE USA_R64_SW USA_R64_NW USA_POCI USA_ROCI USA_RMW USA_EYE TOKYO_LAT TOKYO_LON TOKYO_GRADE TOKYO_WIND TOKYO_PRES TOKYO_R50_DIR TOKYO_R50_LONG TOKYO_R50_SHORT TOKYO_R30_DIR TOKYO_R30_LONG TOKYO_R30_SHORT TOKYO_LAND CMA_LAT CMA_LON CMA_CAT CMA_WIND CMA_PRES HKO_LAT HKO_LON HKO_CAT HKO_WIND HKO_PRES NEWDELHI_LAT NEWDELHI_LON NEWDELHI_GRADE NEWDELHI_WIND NEWDELHI_PRES NEWDELHI_CI NEWDELHI_DP NEWDELHI_POCI REUNION_LAT REUNION_LON REUNION_TYPE REUNION_WIND REUNION_PRES REUNION_TNUM REUNION_CI REUNION_RMW REUNION_R34_NE REUNION_R34_SE REUNION_R34_SW REUNION_R34_NW REUNION_R50_NE REUNION_R50_SE REUNION_R50_SW REUNION_R50_NW REUNION_R64_NE REUNION_R64_SE REUNION_R64_SW REUNION_R64_NW BOM_LAT BOM_LON BOM_TYPE BOM_WIND BOM_PRES BOM_TNUM BOM_CI BOM_RMW BOM_R34_NE BOM_R34_SE BOM_R34_SW BOM_R34_NW BOM_R50_NE BOM_R50_SE BOM_R50_SW BOM_R50_NW BOM_R64_NE BOM_R64_SE BOM_R64_SW BOM_R64_NW BOM_ROCI BOM_POCI BOM_EYE BOM_POS_METHOD BOM_PRES_METHOD NADI_LAT NADI_LON NADI_CAT NADI_WIND NADI_PRES WELLINGTON_LAT WELLINGTON_LON WELLINGTON_WIND WELLINGTON_PRES DS824_LAT DS824_LON DS824_STAGE DS824_WIND DS824_PRES TD9636_LAT TD9636_LON TD9636_STAGE TD9636_WIND TD9636_PRES TD9635_LAT TD9635_LON TD9635_WIND TD9635_PRES TD9635_ROCI NEUMANN_LAT NEUMANN_LON NEUMANN_CLASS NEUMANN_WIND NEUMANN_PRES MLC_LAT MLC_LON MLC_CLASS MLC_WIND MLC_PRES USA_GUST BOM_GUST BOM_GUST_PER REUNION_GUST REUNION_GUST_PER USA_SEAHGT USA_SEARAD_NE USA_SEARAD_SE USA_SEARAD_SW USA_SEARAD_NW STORM_SPEED STORM_DIR
1923232N16145 1923 52 WP MM NOT_NAMED 1923-08-19 22:00:00 NR 16.0000 144.700 main 2038 2038 __________O___ -1 16.0000 144.700 4 13 290
1923232N16145 1923 52 WP MM NOT_NAMED 1923-08-20 00:00:00 NR 16.1481 144.286 main 2054 2014 __________P___ -1 16.1481 144.286 4 13 290
1923232N16145 1923 52 WP MM NOT_NAMED 1923-08-20 03:00:00 NR 16.3701 143.670 main 2016 1958 __________P___ -1 16.3701 143.670 4 13 291
1923232N16145 1923 52 WP MM NOT_NAMED 1923-08-20 06:00:00 NR 16.5941 143.067 main 1958 1901 __________P___ -1 16.5941 143.067 4 12 292
1923232N16145 1923 52 WP MM NOT_NAMED 1923-08-20 09:00:00 NR 16.8225 142.487 main 1901 1882 __________P___ -1 16.8225 142.487 4 12 293
1923232N16145 1923 52 WP MM NOT_NAMED 1923-08-20 10:00:00 NR 16.9000 142.300 main 1882 1847 __________O___ -1 16.9000 142.300 4 12 294
1923232N16145 1923 52 WP MM NOT_NAMED 1923-08-20 12:00:00 NR 17.0585 141.937 main 1847 1802 __________P___ -1 17.0585 141.937 4 11 296
1923232N16145 1923 52 WP MM NOT_NAMED 1923-08-20 15:00:00 NR 17.3150 141.405 main 1802 1761 __________P___ -1 17.3150 141.405 4 12 298
1923232N16145 1923 52 WP MM NOT_NAMED 1923-08-20 18:00:00 NR 17.6111 140.867 main 1761 1712 __________P___ -1 17.6111 140.867 4 12 302
1923232N16145 1923 52 WP MM NOT_NAMED 1923-08-20 21:00:00 NR 17.9656 140.300 main 1715 1700 __________P___ -1 17.9656 140.300 4 13 304
1923232N16145 1923 52 WP MM NOT_NAMED 1923-08-20 22:00:00 NR 18.1000 140.100 main 1700 1668 __________O___ -1 18.1000 140.100 4 15 305
1923232N16145 1923 52 WP MM NOT_NAMED 1923-08-21 00:00:00 NR 18.3934 139.665 main 1673 1588 __________P___ -1 18.3934 139.665 4 16 306
1923232N16145 1923 52 WP MM NOT_NAMED 1923-08-21 03:00:00 NR 18.8903 138.975 main 1588 1503 __________P___ -1 18.8903 138.975 4 17 308
1923232N16145 1923 52 WP MM NOT_NAMED 1923-08-21 06:00:00 NR 19.4354 138.258 main 1503 1404 __________P___ -1 19.4354 138.258 4 18 309
1923232N16145 1923 52 WP MM NOT_NAMED 1923-08-21 09:00:00 NR 20.0072 137.537 main 1404 1375 __________P___ -1 20.0072 137.537 4 18 310
1923232N16145 1923 52 WP MM NOT_NAMED 1923-08-21 10:00:00 NR 20.2000 137.300 main 1375 1311 __________O___ -1 20.2000 137.300 4 17 309
1923232N16145 1923 52 WP MM NOT_NAMED 1923-08-21 12:00:00 NR 20.5587 136.820 main 1311 1229 __________P___ -1 20.5587 136.820 4 17 309
1923232N16145 1923 52 WP MM NOT_NAMED 1923-08-21 15:00:00 NR 21.1095 136.107 main 1229 1138 __________P___ -1 21.1095 136.107 4 17 311
1923232N16145 1923 52 WP MM NOT_NAMED 1923-08-21 18:00:00 NR 21.6832 135.423 main 1138 1053 __________P___ -1 21.6832 135.423 4 17 314
1923232N16145 1923 52 WP MM NOT_NAMED 1923-08-21 21:00:00 NR 22.2892 134.793 main 1053 1024 __________P___ -1 22.2892 134.793 4 17 317
1923232N16145 1923 52 WP MM NOT_NAMED 1923-08-21 22:00:00 NR 22.5000 134.600 main 1024 972 __________O___ -1 22.5000 134.600 4 16 324
1923232N16145 1923 52 WP MM NOT_NAMED 1923-08-22 00:00:00 NR 22.9470 134.268 main 972 870 __________P___ -1 22.9470 134.268 4 16 328
1923232N16145 1923 52 WP MM NOT_NAMED 1923-08-22 03:00:00 NR 23.6503 133.827 main 870 783 __________P___ -1 23.6503 133.827 4 16 331
1923232N16145 1923 52 WP MM NOT_NAMED 1923-08-22 06:00:00 NR 24.3684 133.411 main 783 696 __________P___ -1 24.3684 133.411 4 16 331
1923232N16145 1923 52 WP MM NOT_NAMED 1923-08-22 09:00:00 NR 25.0731 132.964 main 696 668 __________P___ -1 25.0731 132.964 4 16 329
1923232N16145 1923 52 WP MM NOT_NAMED 1923-08-22 10:00:00 NR 25.3000 132.800 main 668 603 __________O___ -1 25.3000 132.800 4 17 323
1923232N16145 1923 52 WP MM NOT_NAMED 1923-08-22 12:00:00 NR 25.7628 132.393 main 603 522 __________P___ -1 25.7628 132.393 4 18 320
1923232N16145 1923 52 WP MM NOT_NAMED 1923-08-22 15:00:00 NR 26.4326 131.731 main 522 448 __________P___ -1 26.4326 131.731 4 18 317
1923232N16145 1923 52 WP MM NOT_NAMED 1923-08-22 18:00:00 NR 27.0416 131.050 main 448 380 __________P___ -1 27.0416 131.050 4 16 313
1923232N16145 1923 52 WP MM NOT_NAMED 1923-08-22 21:00:00 NR 27.5556 130.401 main 380 370 __________P___ -1 27.5556 130.401 4 15 311
1923232N16145 1923 52 WP MM NOT_NAMED 1923-08-22 22:00:00 NR 27.7000 130.200 main 371 352 __________O___ -1 27.7000 130.200 4 12 309
1923232N16145 1923 52 WP MM NOT_NAMED 1923-08-23 00:00:00 NR 27.9421 129.859 main 354 333 __________P___ -1 27.9421 129.859 4 10 306
1923232N16145 1923 52 WP MM NOT_NAMED 1923-08-23 03:00:00 NR 28.2118 129.402 main 336 328 __________P___ -1 28.2118 129.402 4 9 301
1923232N16145 1923 52 WP MM NOT_NAMED 1923-08-23 06:00:00 NR 28.4030 128.977 main 333 330 __________P___ -1 28.4030 128.977 4 8 294
1923232N16145 1923 52 WP MM NOT_NAMED 1923-08-23 09:00:00 NR 28.5529 128.549 main 333 333 __________P___ -1 28.5529 128.549 4 8 291
1923232N16145 1923 52 WP MM NOT_NAMED 1923-08-23 10:00:00 NR 28.6000 128.400 main 337 337 __________O___ -1 28.6000 128.400 4 9 289
1923232N16145 1923 52 WP MM NOT_NAMED 1923-08-23 12:00:00 NR 28.6962 128.085 main 344 344 __________P___ -1 28.6962 128.085 4 9 289
1923232N16145 1923 52 WP MM NOT_NAMED 1923-08-23 15:00:00 NR 28.8450 127.579 main 366 358 __________P___ -1 28.8450 127.579 4 10 288
1923232N16145 1923 52 WP MM NOT_NAMED 1923-08-23 18:00:00 NR 28.9969 127.042 main 393 393 __________P___ -1 28.9969 127.042 4 10 288
1923232N16145 1923 52 WP MM NOT_NAMED 1923-08-23 21:00:00 NR 29.1494 126.487 main 425 416 __________P___ -1 29.1494 126.487 4 10 287
1923232N16145 1923 52 WP MM NOT_NAMED 1923-08-23 22:00:00 NR 29.2000 126.300 main 416 __________O___ -1 29.2000 126.300 4 10 287

デジタル台風データ・検索

IBTrACS Databaseについて

本データベースは、米国NOAAが公開する1842年以降の世界の熱帯低気圧のベストトラックデータアーカイブInternational Best Track Archive for Climate Stewardship (IBTrACS)を、ウェブで閲覧しやすい形式に変換したものです。

最終更新日:2021-10-21